sensor_id;sensor_type;location;lat;lon;timestamp;temperature;humidity
53599;DHT22;39485;45.702;11.364;2023-06-10T00:00:51;19.30;99.90
53599;DHT22;39485;45.702;11.364;2023-06-10T00:03:17;19.30;99.90
53599;DHT22;39485;45.702;11.364;2023-06-10T00:05:43;19.30;99.90
53599;DHT22;39485;45.702;11.364;2023-06-10T00:08:08;19.30;99.90
53599;DHT22;39485;45.702;11.364;2023-06-10T00:10:37;19.30;99.90
53599;DHT22;39485;45.702;11.364;2023-06-10T00:13:04;19.20;99.90
53599;DHT22;39485;45.702;11.364;2023-06-10T00:15:30;19.10;99.90
53599;DHT22;39485;45.702;11.364;2023-06-10T00:17:57;19.10;99.90
53599;DHT22;39485;45.702;11.364;2023-06-10T00:20:23;19.10;99.90
53599;DHT22;39485;45.702;11.364;2023-06-10T00:22:52;19.10;99.90
53599;DHT22;39485;45.702;11.364;2023-06-10T00:25:18;19.00;99.90
53599;DHT22;39485;45.702;11.364;2023-06-10T00:27:44;19.00;99.90
53599;DHT22;39485;45.702;11.364;2023-06-10T00:30:10;19.00;99.90
53599;DHT22;39485;45.702;11.364;2023-06-10T00:32:36;19.00;99.90
53599;DHT22;39485;45.702;11.364;2023-06-10T00:35:03;19.00;99.90
53599;DHT22;39485;45.702;11.364;2023-06-10T00:37:29;19.00;99.90
53599;DHT22;39485;45.702;11.364;2023-06-10T00:39:56;18.90;99.90
53599;DHT22;39485;45.702;11.364;2023-06-10T00:42:21;18.80;99.90
53599;DHT22;39485;45.702;11.364;2023-06-10T00:44:50;18.80;99.90
53599;DHT22;39485;45.702;11.364;2023-06-10T00:47:16;18.70;99.90
53599;DHT22;39485;45.702;11.364;2023-06-10T00:49:41;18.70;99.90
53599;DHT22;39485;45.702;11.364;2023-06-10T00:52:08;18.60;99.90
53599;DHT22;39485;45.702;11.364;2023-06-10T00:54:37;18.60;99.90
53599;DHT22;39485;45.702;11.364;2023-06-10T00:57:03;18.60;99.90
53599;DHT22;39485;45.702;11.364;2023-06-10T00:59:30;18.60;99.90
53599;DHT22;39485;45.702;11.364;2023-06-10T01:01:57;18.60;99.90
53599;DHT22;39485;45.702;11.364;2023-06-10T01:04:23;18.60;99.90
53599;DHT22;39485;45.702;11.364;2023-06-10T01:12:41;18.70;99.90
53599;DHT22;39485;45.702;11.364;2023-06-10T01:15:14;18.80;99.90
53599;DHT22;39485;45.702;11.364;2023-06-10T01:20:23;18.90;99.90
53599;DHT22;39485;45.702;11.364;2023-06-10T01:22:49;18.90;99.90
53599;DHT22;39485;45.702;11.364;2023-06-10T01:25:16;18.90;99.90
53599;DHT22;39485;45.702;11.364;2023-06-10T01:27:46;19.00;99.90
53599;DHT22;39485;45.702;11.364;2023-06-10T01:30:16;19.00;99.90
53599;DHT22;39485;45.702;11.364;2023-06-10T01:32:46;18.90;99.90
53599;DHT22;39485;45.702;11.364;2023-06-10T01:35:14;18.90;99.90
53599;DHT22;39485;45.702;11.364;2023-06-10T01:37:40;18.90;99.90
53599;DHT22;39485;45.702;11.364;2023-06-10T01:40:09;18.90;99.90
53599;DHT22;39485;45.702;11.364;2023-06-10T01:42:35;18.90;99.90
53599;DHT22;39485;45.702;11.364;2023-06-10T01:45:01;18.90;99.90
53599;DHT22;39485;45.702;11.364;2023-06-10T01:47:27;19.00;99.90
53599;DHT22;39485;45.702;11.364;2023-06-10T01:49:53;19.00;99.90
53599;DHT22;39485;45.702;11.364;2023-06-10T01:52:18;19.00;99.90
53599;DHT22;39485;45.702;11.364;2023-06-10T01:54:44;19.00;99.90
53599;DHT22;39485;45.702;11.364;2023-06-10T01:57:10;19.00;99.90
53599;DHT22;39485;45.702;11.364;2023-06-10T01:59:35;19.00;99.90
53599;DHT22;39485;45.702;11.364;2023-06-10T02:02:03;19.00;99.90
53599;DHT22;39485;45.702;11.364;2023-06-10T02:04:29;19.10;99.90
53599;DHT22;39485;45.702;11.364;2023-06-10T02:06:55;19.10;99.90
53599;DHT22;39485;45.702;11.364;2023-06-10T02:09:21;19.10;99.90
53599;DHT22;39485;45.702;11.364;2023-06-10T02:11:48;19.10;99.90
53599;DHT22;39485;45.702;11.364;2023-06-10T02:14:14;19.00;99.90
53599;DHT22;39485;45.702;11.364;2023-06-10T02:16:40;19.00;99.90
53599;DHT22;39485;45.702;11.364;2023-06-10T02:19:06;19.00;99.90
53599;DHT22;39485;45.702;11.364;2023-06-10T02:21:32;18.90;99.90
53599;DHT22;39485;45.702;11.364;2023-06-10T02:24:00;18.80;99.90
53599;DHT22;39485;45.702;11.364;2023-06-10T02:26:25;18.80;99.90
53599;DHT22;39485;45.702;11.364;2023-06-10T02:28:51;18.70;99.90
53599;DHT22;39485;45.702;11.364;2023-06-10T02:31:17;18.70;99.90
53599;DHT22;39485;45.702;11.364;2023-06-10T02:33:43;18.70;99.90
53599;DHT22;39485;45.702;11.364;2023-06-10T02:36:10;18.70;99.90
53599;DHT22;39485;45.702;11.364;2023-06-10T02:38:38;18.60;99.90
53599;DHT22;39485;45.702;11.364;2023-06-10T02:41:05;18.60;99.90
53599;DHT22;39485;45.702;11.364;2023-06-10T02:43:30;18.60;99.90
53599;DHT22;39485;45.702;11.364;2023-06-10T02:45:56;18.60;99.90
53599;DHT22;39485;45.702;11.364;2023-06-10T02:48:24;18.60;99.90
53599;DHT22;39485;45.702;11.364;2023-06-10T02:50:49;18.60;99.90
53599;DHT22;39485;45.702;11.364;2023-06-10T02:53:15;18.60;99.90
53599;DHT22;39485;45.702;11.364;2023-06-10T02:55:41;18.60;99.90
53599;DHT22;39485;45.702;11.364;2023-06-10T02:58:07;18.60;99.90
53599;DHT22;39485;45.702;11.364;2023-06-10T03:00:32;18.70;99.90
53599;DHT22;39485;45.702;11.364;2023-06-10T03:02:58;18.70;99.90
53599;DHT22;39485;45.702;11.364;2023-06-10T03:05:28;18.70;99.90
53599;DHT22;39485;45.702;11.364;2023-06-10T03:07:54;18.70;99.90
53599;DHT22;39485;45.702;11.364;2023-06-10T03:10:20;18.60;99.90
53599;DHT22;39485;45.702;11.364;2023-06-10T03:12:45;18.60;99.90
53599;DHT22;39485;45.702;11.364;2023-06-10T03:15:11;18.60;99.90
53599;DHT22;39485;45.702;11.364;2023-06-10T03:17:37;18.50;99.90
53599;DHT22;39485;45.702;11.364;2023-06-10T03:20:03;18.50;99.90
53599;DHT22;39485;45.702;11.364;2023-06-10T03:22:31;18.50;99.90
53599;DHT22;39485;45.702;11.364;2023-06-10T03:24:56;18.50;99.90
53599;DHT22;39485;45.702;11.364;2023-06-10T03:27:23;18.50;99.90
53599;DHT22;39485;45.702;11.364;2023-06-10T03:29:48;18.50;99.90
53599;DHT22;39485;45.702;11.364;2023-06-10T03:32:14;18.50;99.90
53599;DHT22;39485;45.702;11.364;2023-06-10T03:34:40;18.40;99.90
53599;DHT22;39485;45.702;11.364;2023-06-10T03:37:06;18.40;99.90
53599;DHT22;39485;45.702;11.364;2023-06-10T03:39:32;18.40;99.90
53599;DHT22;39485;45.702;11.364;2023-06-10T03:41:58;18.40;99.90
53599;DHT22;39485;45.702;11.364;2023-06-10T03:44:27;18.40;99.90
53599;DHT22;39485;45.702;11.364;2023-06-10T03:46:56;18.30;99.90
53599;DHT22;39485;45.702;11.364;2023-06-10T03:49:23;18.30;99.90
53599;DHT22;39485;45.702;11.364;2023-06-10T03:51:51;18.30;99.90
53599;DHT22;39485;45.702;11.364;2023-06-10T03:54:16;18.30;99.90
53599;DHT22;39485;45.702;11.364;2023-06-10T03:56:42;18.30;99.90
53599;DHT22;39485;45.702;11.364;2023-06-10T03:59:08;18.30;99.90
53599;DHT22;39485;45.702;11.364;2023-06-10T04:01:33;18.30;99.90
53599;DHT22;39485;45.702;11.364;2023-06-10T04:04:00;18.30;99.90
53599;DHT22;39485;45.702;11.364;2023-06-10T04:06:26;18.30;99.90
53599;DHT22;39485;45.702;11.364;2023-06-10T04:08:54;18.30;99.90
53599;DHT22;39485;45.702;11.364;2023-06-10T04:11:23;18.30;99.90
53599;DHT22;39485;45.702;11.364;2023-06-10T04:13:49;18.30;99.90
53599;DHT22;39485;45.702;11.364;2023-06-10T04:16:15;18.30;99.90
53599;DHT22;39485;45.702;11.364;2023-06-10T04:18:41;18.40;99.90
53599;DHT22;39485;45.702;11.364;2023-06-10T04:21:07;18.40;99.90
53599;DHT22;39485;45.702;11.364;2023-06-10T04:23:35;18.40;99.90
53599;DHT22;39485;45.702;11.364;2023-06-10T04:26:02;18.40;99.90
53599;DHT22;39485;45.702;11.364;2023-06-10T04:28:28;18.40;99.90
53599;DHT22;39485;45.702;11.364;2023-06-10T04:30:53;18.50;99.90
53599;DHT22;39485;45.702;11.364;2023-06-10T04:33:19;18.40;99.90
53599;DHT22;39485;45.702;11.364;2023-06-10T04:35:45;18.40;99.90
53599;DHT22;39485;45.702;11.364;2023-06-10T04:38:13;18.50;99.90
53599;DHT22;39485;45.702;11.364;2023-06-10T04:40:39;18.50;99.90
53599;DHT22;39485;45.702;11.364;2023-06-10T04:43:05;18.50;99.90
53599;DHT22;39485;45.702;11.364;2023-06-10T04:45:31;18.50;99.90
53599;DHT22;39485;45.702;11.364;2023-06-10T04:47:56;18.50;99.90
53599;DHT22;39485;45.702;11.364;2023-06-10T04:50:23;18.50;99.90
53599;DHT22;39485;45.702;11.364;2023-06-10T04:52:49;18.60;99.90
53599;DHT22;39485;45.702;11.364;2023-06-10T04:55:15;18.60;99.90
53599;DHT22;39485;45.702;11.364;2023-06-10T04:57:41;18.70;99.90
53599;DHT22;39485;45.702;11.364;2023-06-10T05:00:07;18.70;99.90
53599;DHT22;39485;45.702;11.364;2023-06-10T05:02:33;18.70;99.90
53599;DHT22;39485;45.702;11.364;2023-06-10T05:05:00;18.70;99.90
53599;DHT22;39485;45.702;11.364;2023-06-10T05:07:25;18.70;99.90
53599;DHT22;39485;45.702;11.364;2023-06-10T05:09:51;18.80;99.90
53599;DHT22;39485;45.702;11.364;2023-06-10T05:12:17;18.80;99.90
53599;DHT22;39485;45.702;11.364;2023-06-10T05:14:42;18.80;99.90
53599;DHT22;39485;45.702;11.364;2023-06-10T05:17:08;18.80;99.90
53599;DHT22;39485;45.702;11.364;2023-06-10T05:19:34;18.80;99.90
53599;DHT22;39485;45.702;11.364;2023-06-10T05:22:01;18.90;99.90
53599;DHT22;39485;45.702;11.364;2023-06-10T05:24:28;18.90;99.90
53599;DHT22;39485;45.702;11.364;2023-06-10T05:26:53;18.90;99.90
53599;DHT22;39485;45.702;11.364;2023-06-10T05:29:19;19.00;99.90
53599;DHT22;39485;45.702;11.364;2023-06-10T05:31:45;19.00;99.90
53599;DHT22;39485;45.702;11.364;2023-06-10T05:34:10;19.00;99.90
53599;DHT22;39485;45.702;11.364;2023-06-10T05:36:36;19.00;99.90
53599;DHT22;39485;45.702;11.364;2023-06-10T05:39:02;19.10;99.90
53599;DHT22;39485;45.702;11.364;2023-06-10T05:41:28;19.10;99.90
53599;DHT22;39485;45.702;11.364;2023-06-10T05:43:54;19.20;99.90
53599;DHT22;39485;45.702;11.364;2023-06-10T05:46:21;19.20;99.90
53599;DHT22;39485;45.702;11.364;2023-06-10T05:48:46;19.30;99.90
53599;DHT22;39485;45.702;11.364;2023-06-10T05:51:12;19.40;99.90
53599;DHT22;39485;45.702;11.364;2023-06-10T05:53:38;19.50;99.90
53599;DHT22;39485;45.702;11.364;2023-06-10T05:56:04;19.60;99.90
53599;DHT22;39485;45.702;11.364;2023-06-10T05:58:30;19.70;99.90
53599;DHT22;39485;45.702;11.364;2023-06-10T06:00:55;19.80;99.90
53599;DHT22;39485;45.702;11.364;2023-06-10T06:03:21;19.90;99.90
53599;DHT22;39485;45.702;11.364;2023-06-10T06:05:47;20.00;99.90
53599;DHT22;39485;45.702;11.364;2023-06-10T06:08:12;20.00;99.90
53599;DHT22;39485;45.702;11.364;2023-06-10T06:10:44;20.10;99.90
53599;DHT22;39485;45.702;11.364;2023-06-10T06:13:10;20.20;99.90
53599;DHT22;39485;45.702;11.364;2023-06-10T06:15:36;20.30;99.90
53599;DHT22;39485;45.702;11.364;2023-06-10T06:18:01;20.40;99.90
53599;DHT22;39485;45.702;11.364;2023-06-10T06:20:27;20.50;99.90
53599;DHT22;39485;45.702;11.364;2023-06-10T06:22:59;20.60;99.90
53599;DHT22;39485;45.702;11.364;2023-06-10T06:25:24;20.70;99.90
53599;DHT22;39485;45.702;11.364;2023-06-10T06:27:50;20.80;99.90
53599;DHT22;39485;45.702;11.364;2023-06-10T06:30:16;20.90;99.90
53599;DHT22;39485;45.702;11.364;2023-06-10T06:32:42;21.00;99.90
53599;DHT22;39485;45.702;11.364;2023-06-10T06:35:07;21.20;99.90
53599;DHT22;39485;45.702;11.364;2023-06-10T06:37:33;21.30;99.90
53599;DHT22;39485;45.702;11.364;2023-06-10T06:40:00;21.50;99.90
53599;DHT22;39485;45.702;11.364;2023-06-10T06:42:25;21.70;99.90
53599;DHT22;39485;45.702;11.364;2023-06-10T06:44:51;21.80;99.90
53599;DHT22;39485;45.702;11.364;2023-06-10T06:47:16;21.90;99.90
53599;DHT22;39485;45.702;11.364;2023-06-10T06:49:48;22.10;99.90
53599;DHT22;39485;45.702;11.364;2023-06-10T06:52:17;22.10;99.90
53599;DHT22;39485;45.702;11.364;2023-06-10T06:54:44;22.30;99.90
53599;DHT22;39485;45.702;11.364;2023-06-10T06:57:09;22.40;99.90
53599;DHT22;39485;45.702;11.364;2023-06-10T06:59:36;22.50;99.90
53599;DHT22;39485;45.702;11.364;2023-06-10T07:02:02;22.60;99.90
53599;DHT22;39485;45.702;11.364;2023-06-10T07:04:28;22.60;99.90
53599;DHT22;39485;45.702;11.364;2023-06-10T07:06:54;22.70;99.90
53599;DHT22;39485;45.702;11.364;2023-06-10T07:09:20;22.80;99.90
53599;DHT22;39485;45.702;11.364;2023-06-10T07:11:45;22.90;99.90
53599;DHT22;39485;45.702;11.364;2023-06-10T07:14:11;23.00;99.90
53599;DHT22;39485;45.702;11.364;2023-06-10T07:16:36;23.10;99.90
53599;DHT22;39485;45.702;11.364;2023-06-10T07:19:02;23.10;99.90
53599;DHT22;39485;45.702;11.364;2023-06-10T07:21:29;23.20;99.90
53599;DHT22;39485;45.702;11.364;2023-06-10T07:23:55;23.30;99.90
53599;DHT22;39485;45.702;11.364;2023-06-10T07:26:22;23.30;99.90
53599;DHT22;39485;45.702;11.364;2023-06-10T07:28:47;23.40;99.90
53599;DHT22;39485;45.702;11.364;2023-06-10T07:31:13;23.50;99.90
53599;DHT22;39485;45.702;11.364;2023-06-10T07:33:39;23.60;99.90
53599;DHT22;39485;45.702;11.364;2023-06-10T07:36:06;23.60;99.90
53599;DHT22;39485;45.702;11.364;2023-06-10T07:38:31;23.70;99.90
53599;DHT22;39485;45.702;11.364;2023-06-10T07:40:57;23.80;99.90
53599;DHT22;39485;45.702;11.364;2023-06-10T07:43:24;23.90;99.90
53599;DHT22;39485;45.702;11.364;2023-06-10T07:45:50;23.80;99.90
53599;DHT22;39485;45.702;11.364;2023-06-10T07:48:16;23.80;99.90
53599;DHT22;39485;45.702;11.364;2023-06-10T07:50:41;23.80;99.90
53599;DHT22;39485;45.702;11.364;2023-06-10T07:53:07;23.90;99.90
53599;DHT22;39485;45.702;11.364;2023-06-10T07:55:33;24.00;99.90
53599;DHT22;39485;45.702;11.364;2023-06-10T07:57:58;24.10;99.90
53599;DHT22;39485;45.702;11.364;2023-06-10T08:00:24;24.20;99.90
53599;DHT22;39485;45.702;11.364;2023-06-10T08:02:50;24.20;99.90
53599;DHT22;39485;45.702;11.364;2023-06-10T08:05:16;24.20;99.90
53599;DHT22;39485;45.702;11.364;2023-06-10T08:07:42;24.20;99.90
53599;DHT22;39485;45.702;11.364;2023-06-10T08:10:08;24.30;99.90
53599;DHT22;39485;45.702;11.364;2023-06-10T08:12:34;24.30;99.90
53599;DHT22;39485;45.702;11.364;2023-06-10T08:15:01;24.30;99.90
53599;DHT22;39485;45.702;11.364;2023-06-10T08:17:26;24.30;99.90
53599;DHT22;39485;45.702;11.364;2023-06-10T08:19:52;24.30;99.90
53599;DHT22;39485;45.702;11.364;2023-06-10T08:22:17;24.30;99.90
53599;DHT22;39485;45.702;11.364;2023-06-10T08:24:45;24.30;99.90
53599;DHT22;39485;45.702;11.364;2023-06-10T08:27:10;24.30;99.90
53599;DHT22;39485;45.702;11.364;2023-06-10T08:29:36;24.30;99.90
53599;DHT22;39485;45.702;11.364;2023-06-10T08:32:02;24.30;99.90
53599;DHT22;39485;45.702;11.364;2023-06-10T08:34:28;24.40;99.90
53599;DHT22;39485;45.702;11.364;2023-06-10T08:36:54;24.40;99.90
53599;DHT22;39485;45.702;11.364;2023-06-10T08:39:21;24.40;99.90
53599;DHT22;39485;45.702;11.364;2023-06-10T08:42:21;24.40;99.90
53599;DHT22;39485;45.702;11.364;2023-06-10T08:44:53;24.30;99.90
53599;DHT22;39485;45.702;11.364;2023-06-10T08:47:19;24.40;99.90
53599;DHT22;39485;45.702;11.364;2023-06-10T08:49:47;24.30;99.90
53599;DHT22;39485;45.702;11.364;2023-06-10T08:52:20;24.40;99.90
53599;DHT22;39485;45.702;11.364;2023-06-10T08:55:04;24.40;99.90
53599;DHT22;39485;45.702;11.364;2023-06-10T08:57:31;24.40;99.90
53599;DHT22;39485;45.702;11.364;2023-06-10T08:59:57;24.40;99.90
53599;DHT22;39485;45.702;11.364;2023-06-10T09:02:27;24.40;99.90
53599;DHT22;39485;45.702;11.364;2023-06-10T09:04:53;24.50;99.90
53599;DHT22;39485;45.702;11.364;2023-06-10T09:07:21;24.40;99.90
53599;DHT22;39485;45.702;11.364;2023-06-10T09:09:48;24.50;99.90
53599;DHT22;39485;45.702;11.364;2023-06-10T09:12:14;24.50;99.90
53599;DHT22;39485;45.702;11.364;2023-06-10T09:14:44;24.60;99.90
53599;DHT22;39485;45.702;11.364;2023-06-10T09:17:10;24.60;99.90
53599;DHT22;39485;45.702;11.364;2023-06-10T09:19:37;24.70;99.90
53599;DHT22;39485;45.702;11.364;2023-06-10T09:22:04;24.80;99.90
53599;DHT22;39485;45.702;11.364;2023-06-10T09:24:29;24.90;99.90
53599;DHT22;39485;45.702;11.364;2023-06-10T09:27:04;25.00;99.90
53599;DHT22;39485;45.702;11.364;2023-06-10T09:29:30;25.00;99.90
53599;DHT22;39485;45.702;11.364;2023-06-10T09:31:56;25.10;99.90
53599;DHT22;39485;45.702;11.364;2023-06-10T09:34:25;25.10;99.90
53599;DHT22;39485;45.702;11.364;2023-06-10T09:36:51;25.20;99.90
53599;DHT22;39485;45.702;11.364;2023-06-10T09:39:18;25.20;99.90
53599;DHT22;39485;45.702;11.364;2023-06-10T09:41:45;25.40;99.90
53599;DHT22;39485;45.702;11.364;2023-06-10T09:46:39;25.50;99.90
53599;DHT22;39485;45.702;11.364;2023-06-10T09:49:05;25.60;99.90
53599;DHT22;39485;45.702;11.364;2023-06-10T09:51:32;25.60;99.90
53599;DHT22;39485;45.702;11.364;2023-06-10T09:53:59;25.60;99.90
53599;DHT22;39485;45.702;11.364;2023-06-10T09:56:35;25.60;99.90
53599;DHT22;39485;45.702;11.364;2023-06-10T09:59:01;25.70;99.90
53599;DHT22;39485;45.702;11.364;2023-06-10T10:01:27;25.70;99.90
53599;DHT22;39485;45.702;11.364;2023-06-10T10:03:53;25.70;99.90
53599;DHT22;39485;45.702;11.364;2023-06-10T10:06:20;25.80;99.90
53599;DHT22;39485;45.702;11.364;2023-06-10T10:08:50;25.80;99.90
53599;DHT22;39485;45.702;11.364;2023-06-10T10:11:18;25.90;99.90
53599;DHT22;39485;45.702;11.364;2023-06-10T10:13:49;26.00;99.90
53599;DHT22;39485;45.702;11.364;2023-06-10T10:16:17;26.00;99.90
53599;DHT22;39485;45.702;11.364;2023-06-10T10:19:01;26.10;99.90
53599;DHT22;39485;45.702;11.364;2023-06-10T10:21:32;26.10;99.90
53599;DHT22;39485;45.702;11.364;2023-06-10T10:24:17;26.10;99.90
53599;DHT22;39485;45.702;11.364;2023-06-10T10:26:43;26.10;99.90
53599;DHT22;39485;45.702;11.364;2023-06-10T10:29:24;26.10;99.90
53599;DHT22;39485;45.702;11.364;2023-06-10T10:31:51;26.10;99.90
53599;DHT22;39485;45.702;11.364;2023-06-10T10:34:30;26.10;99.90
53599;DHT22;39485;45.702;11.364;2023-06-10T10:36:59;26.10;99.90
53599;DHT22;39485;45.702;11.364;2023-06-10T10:39:25;26.10;99.90
53599;DHT22;39485;45.702;11.364;2023-06-10T10:41:54;26.10;99.90
53599;DHT22;39485;45.702;11.364;2023-06-10T10:44:20;26.10;99.90
53599;DHT22;39485;45.702;11.364;2023-06-10T10:46:50;26.20;99.90
53599;DHT22;39485;45.702;11.364;2023-06-10T10:49:17;26.10;99.90
53599;DHT22;39485;45.702;11.364;2023-06-10T10:51:57;26.10;99.90
53599;DHT22;39485;45.702;11.364;2023-06-10T10:54:33;26.10;99.90
53599;DHT22;39485;45.702;11.364;2023-06-10T10:59:57;26.00;99.90
53599;DHT22;39485;45.702;11.364;2023-06-10T11:02:45;26.00;99.90
53599;DHT22;39485;45.702;11.364;2023-06-10T11:05:14;26.00;99.90
53599;DHT22;39485;45.702;11.364;2023-06-10T11:07:40;26.00;99.90
53599;DHT22;39485;45.702;11.364;2023-06-10T11:10:11;26.10;99.90
53599;DHT22;39485;45.702;11.364;2023-06-10T11:12:52;26.10;99.90
53599;DHT22;39485;45.702;11.364;2023-06-10T11:15:28;26.00;99.90
53599;DHT22;39485;45.702;11.364;2023-06-10T11:31:27;25.60;99.90
53599;DHT22;39485;45.702;11.364;2023-06-10T11:33:56;25.50;99.90
53599;DHT22;39485;45.702;11.364;2023-06-10T11:36:23;25.50;99.90
53599;DHT22;39485;45.702;11.364;2023-06-10T11:38:51;25.40;99.90
53599;DHT22;39485;45.702;11.364;2023-06-10T11:41:18;25.40;99.90
53599;DHT22;39485;45.702;11.364;2023-06-10T11:43:44;25.30;99.90
53599;DHT22;39485;45.702;11.364;2023-06-10T11:46:11;25.40;99.90
53599;DHT22;39485;45.702;11.364;2023-06-10T11:48:37;25.30;99.90
53599;DHT22;39485;45.702;11.364;2023-06-10T11:51:07;25.30;99.90
53599;DHT22;39485;45.702;11.364;2023-06-10T11:53:33;25.30;99.90
53599;DHT22;39485;45.702;11.364;2023-06-10T11:55:59;25.40;99.90
53599;DHT22;39485;45.702;11.364;2023-06-10T11:58:24;25.40;99.90
53599;DHT22;39485;45.702;11.364;2023-06-10T12:00:54;25.40;99.90
53599;DHT22;39485;45.702;11.364;2023-06-10T12:03:23;25.50;99.90
53599;DHT22;39485;45.702;11.364;2023-06-10T12:06:06;25.50;99.90
53599;DHT22;39485;45.702;11.364;2023-06-10T12:08:33;25.60;99.90
53599;DHT22;39485;45.702;11.364;2023-06-10T12:10:59;25.60;99.90
53599;DHT22;39485;45.702;11.364;2023-06-10T12:13:28;25.70;99.90
53599;DHT22;39485;45.702;11.364;2023-06-10T12:15:54;25.80;99.90
53599;DHT22;39485;45.702;11.364;2023-06-10T12:18:22;25.80;99.90
53599;DHT22;39485;45.702;11.364;2023-06-10T12:20:49;25.90;99.90
53599;DHT22;39485;45.702;11.364;2023-06-10T12:23:16;26.00;99.90
53599;DHT22;39485;45.702;11.364;2023-06-10T12:25:53;26.00;99.90
53599;DHT22;39485;45.702;11.364;2023-06-10T12:28:23;26.10;99.90
53599;DHT22;39485;45.702;11.364;2023-06-10T12:30:49;26.10;99.90
53599;DHT22;39485;45.702;11.364;2023-06-10T12:33:19;26.20;99.90
53599;DHT22;39485;45.702;11.364;2023-06-10T12:35:52;26.20;99.90
53599;DHT22;39485;45.702;11.364;2023-06-10T12:38:22;26.20;99.90
53599;DHT22;39485;45.702;11.364;2023-06-10T12:40:50;26.20;99.90
53599;DHT22;39485;45.702;11.364;2023-06-10T12:43:22;26.30;99.90
53599;DHT22;39485;45.702;11.364;2023-06-10T12:45:49;26.30;99.90
53599;DHT22;39485;45.702;11.364;2023-06-10T12:48:24;26.30;99.90
53599;DHT22;39485;45.702;11.364;2023-06-10T12:50:55;26.30;99.90
53599;DHT22;39485;45.702;11.364;2023-06-10T12:53:22;26.30;99.90
53599;DHT22;39485;45.702;11.364;2023-06-10T12:55:54;26.30;99.90
53599;DHT22;39485;45.702;11.364;2023-06-10T12:58:20;26.20;99.90
53599;DHT22;39485;45.702;11.364;2023-06-10T13:00:47;26.20;99.90
53599;DHT22;39485;45.702;11.364;2023-06-10T13:03:17;26.30;99.90
53599;DHT22;39485;45.702;11.364;2023-06-10T13:05:43;26.30;99.90
53599;DHT22;39485;45.702;11.364;2023-06-10T13:08:09;26.30;99.90
53599;DHT22;39485;45.702;11.364;2023-06-10T13:10:38;26.30;99.90
53599;DHT22;39485;45.702;11.364;2023-06-10T13:13:04;26.20;99.90
53599;DHT22;39485;45.702;11.364;2023-06-10T13:15:32;26.10;99.90
53599;DHT22;39485;45.702;11.364;2023-06-10T13:18:04;26.10;99.90
53599;DHT22;39485;45.702;11.364;2023-06-10T13:20:30;26.10;99.90
53599;DHT22;39485;45.702;11.364;2023-06-10T13:22:56;26.10;99.90
53599;DHT22;39485;45.702;11.364;2023-06-10T13:25:22;26.00;99.90
53599;DHT22;39485;45.702;11.364;2023-06-10T13:27:48;26.00;99.90
53599;DHT22;39485;45.702;11.364;2023-06-10T13:30:14;26.00;99.90
53599;DHT22;39485;45.702;11.364;2023-06-10T13:32:40;25.90;99.90
53599;DHT22;39485;45.702;11.364;2023-06-10T13:35:06;25.90;99.90
53599;DHT22;39485;45.702;11.364;2023-06-10T13:37:33;25.90;99.90
53599;DHT22;39485;45.702;11.364;2023-06-10T13:39:59;25.90;99.90
53599;DHT22;39485;45.702;11.364;2023-06-10T13:42:25;25.90;99.90
53599;DHT22;39485;45.702;11.364;2023-06-10T13:44:52;25.80;99.90
53599;DHT22;39485;45.702;11.364;2023-06-10T13:47:17;25.70;99.90
53599;DHT22;39485;45.702;11.364;2023-06-10T13:49:43;25.70;99.90
53599;DHT22;39485;45.702;11.364;2023-06-10T13:52:09;25.60;99.90
53599;DHT22;39485;45.702;11.364;2023-06-10T13:54:34;25.60;99.90
53599;DHT22;39485;45.702;11.364;2023-06-10T13:57:03;25.60;99.90
53599;DHT22;39485;45.702;11.364;2023-06-10T13:59:29;25.50;99.90
53599;DHT22;39485;45.702;11.364;2023-06-10T14:01:54;25.50;99.90
53599;DHT22;39485;45.702;11.364;2023-06-10T14:04:21;25.50;99.90
53599;DHT22;39485;45.702;11.364;2023-06-10T14:06:46;25.60;99.90
53599;DHT22;39485;45.702;11.364;2023-06-10T14:09:15;25.60;99.90
53599;DHT22;39485;45.702;11.364;2023-06-10T14:11:41;25.60;99.90
53599;DHT22;39485;45.702;11.364;2023-06-10T14:14:07;25.60;99.90
53599;DHT22;39485;45.702;11.364;2023-06-10T14:16:33;25.60;99.90
53599;DHT22;39485;45.702;11.364;2023-06-10T14:18:58;25.60;99.90
53599;DHT22;39485;45.702;11.364;2023-06-10T14:21:24;25.60;99.90
53599;DHT22;39485;45.702;11.364;2023-06-10T14:23:50;25.60;99.90
53599;DHT22;39485;45.702;11.364;2023-06-10T14:26:17;25.60;99.90
53599;DHT22;39485;45.702;11.364;2023-06-10T14:28:43;25.60;99.90
53599;DHT22;39485;45.702;11.364;2023-06-10T14:31:08;25.60;99.90
53599;DHT22;39485;45.702;11.364;2023-06-10T14:33:34;25.60;99.90
53599;DHT22;39485;45.702;11.364;2023-06-10T14:36:00;25.60;99.90
53599;DHT22;39485;45.702;11.364;2023-06-10T14:38:25;25.70;99.90
53599;DHT22;39485;45.702;11.364;2023-06-10T14:40:51;25.70;99.90
53599;DHT22;39485;45.702;11.364;2023-06-10T14:43:18;25.70;99.90
53599;DHT22;39485;45.702;11.364;2023-06-10T14:45:43;25.70;99.90
53599;DHT22;39485;45.702;11.364;2023-06-10T14:48:10;25.70;99.90
53599;DHT22;39485;45.702;11.364;2023-06-10T14:50:36;25.80;99.90
53599;DHT22;39485;45.702;11.364;2023-06-10T14:53:02;25.80;99.90
53599;DHT22;39485;45.702;11.364;2023-06-10T14:55:27;25.90;99.90
53599;DHT22;39485;45.702;11.364;2023-06-10T14:57:53;26.00;99.90
53599;DHT22;39485;45.702;11.364;2023-06-10T15:00:19;26.00;99.90
53599;DHT22;39485;45.702;11.364;2023-06-10T15:02:47;26.00;99.90
53599;DHT22;39485;45.702;11.364;2023-06-10T15:05:14;26.10;99.90
53599;DHT22;39485;45.702;11.364;2023-06-10T15:07:41;26.10;99.90
53599;DHT22;39485;45.702;11.364;2023-06-10T15:10:07;26.20;99.90
53599;DHT22;39485;45.702;11.364;2023-06-10T15:12:34;26.20;99.90
53599;DHT22;39485;45.702;11.364;2023-06-10T15:14:59;26.20;99.90
53599;DHT22;39485;45.702;11.364;2023-06-10T15:17:26;26.10;99.90
53599;DHT22;39485;45.702;11.364;2023-06-10T15:19:52;26.10;99.90
53599;DHT22;39485;45.702;11.364;2023-06-10T15:22:17;26.10;99.90
53599;DHT22;39485;45.702;11.364;2023-06-10T15:24:43;26.00;99.90
53599;DHT22;39485;45.702;11.364;2023-06-10T15:27:09;26.00;99.90
53599;DHT22;39485;45.702;11.364;2023-06-10T15:29:34;25.90;99.90
53599;DHT22;39485;45.702;11.364;2023-06-10T15:32:00;25.90;99.90
53599;DHT22;39485;45.702;11.364;2023-06-10T15:34:26;25.80;99.90
53599;DHT22;39485;45.702;11.364;2023-06-10T15:36:51;25.80;99.90
53599;DHT22;39485;45.702;11.364;2023-06-10T15:39:17;25.80;99.90
53599;DHT22;39485;45.702;11.364;2023-06-10T15:41:44;25.80;99.90